Time;durP1;ratioP1;P1;durP2;ratioP2;P2;SDS_P1;SDS_P2;PMS_P1;PMS_P2;Temp;Humidity;BMP_temperature;BMP_pressure;BME280_temperature;BME280_humidity;BME280_pressure;Samples;Min_cycle;Max_cycle;Signal;HPM_P1;HPM_P2
2023/09/16 00:00:58;;;;;;;6.15;4.75;;;18.30;99.90;;;;;;5052472;28;20172;-51
2023/09/16 00:03:23;;;;;;;9.27;4.75;;;18.30;99.90;;;;;;5052746;28;20626;-51
2023/09/16 00:05:49;;;;;;;5.80;4.85;;;18.30;99.90;;;;;;5052677;28;20179;-47
2023/09/16 00:08:15;;;;;;;5.43;4.57;;;18.20;99.90;;;;;;5052657;28;20537;-46
2023/09/16 00:10:40;;;;;;;6.90;4.93;;;18.20;99.90;;;;;;5055424;28;20524;-51
2023/09/16 00:13:06;;;;;;;5.50;4.20;;;18.10;99.90;;;;;;5056045;28;20551;-48
2023/09/16 00:15:32;;;;;;;5.35;4.32;;;18.10;99.90;;;;;;5056001;28;20178;-51
2023/09/16 00:17:57;;;;;;;7.03;5.00;;;18.10;99.90;;;;;;5055867;28;20183;-50
2023/09/16 00:20:25;;;;;;;7.47;5.18;;;18.00;99.90;;;;;;5056161;28;20231;-50
2023/09/16 00:22:51;;;;;;;6.20;4.82;;;18.00;99.90;;;;;;5055868;28;20178;-50
2023/09/16 00:25:17;;;;;;;6.50;4.93;;;18.00;99.90;;;;;;5055776;28;20184;-51
2023/09/16 00:27:43;;;;;;;5.70;4.80;;;18.00;99.90;;;;;;5055785;28;20226;-50
2023/09/16 00:30:09;;;;;;;5.85;4.72;;;17.90;99.90;;;;;;5055615;28;20229;-48
2023/09/16 00:32:35;;;;;;;5.72;5.13;;;17.90;99.90;;;;;;5055836;28;20206;-49
2023/09/16 00:35:03;;;;;;;6.50;4.72;;;18.00;99.90;;;;;;5055805;28;20186;-50
2023/09/16 00:37:28;;;;;;;5.55;4.95;;;18.00;99.90;;;;;;5055552;28;20182;-49
2023/09/16 00:39:54;;;;;;;5.47;4.68;;;18.00;99.90;;;;;;5055480;28;20278;-51
2023/09/16 00:42:20;;;;;;;5.18;4.43;;;18.00;99.90;;;;;;5055561;28;20226;-49
2023/09/16 00:44:46;;;;;;;8.20;4.40;;;18.10;99.90;;;;;;5054053;28;20214;-48
2023/09/16 00:47:12;;;;;;;5.43;4.75;;;18.00;99.90;;;;;;5055549;28;20183;-52
2023/09/16 00:49:38;;;;;;;5.93;5.00;;;18.10;99.90;;;;;;5055473;28;20313;-49
2023/09/16 00:52:04;;;;;;;5.25;4.30;;;18.10;99.90;;;;;;5055407;28;20182;-49
2023/09/16 00:54:30;;;;;;;6.65;4.70;;;18.10;99.90;;;;;;5055198;28;20663;-50
2023/09/16 00:56:57;;;;;;;5.82;4.47;;;18.00;99.90;;;;;;5055224;28;20197;-50
2023/09/16 00:59:25;;;;;;;5.50;4.72;;;18.10;99.90;;;;;;5055075;28;20579;-50
2023/09/16 01:01:52;;;;;;;5.40;4.43;;;18.00;99.90;;;;;;5055355;28;20206;-50
2023/09/16 01:04:23;;;;;;;6.80;4.50;;;18.00;99.90;;;;;;5055162;28;20680;-49
2023/09/16 01:06:51;;;;;;;5.63;4.35;;;18.00;99.90;;;;;;5055197;28;20179;-50
2023/09/16 01:09:20;;;;;;;6.03;4.80;;;17.90;99.90;;;;;;5055026;28;20183;-46
2023/09/16 01:11:45;;;;;;;5.88;4.43;;;17.90;99.90;;;;;;5054862;28;20580;-51
2023/09/16 01:14:11;;;;;;;5.72;4.43;;;17.90;99.90;;;;;;5054864;28;20172;-48
2023/09/16 01:16:48;;;;;;;7.15;4.70;;;17.80;99.90;;;;;;5054837;28;20683;-49
2023/09/16 01:19:27;;;;;;;4.70;4.22;;;17.80;99.90;;;;;;5054704;28;20178;-46
2023/09/16 01:21:53;;;;;;;5.00;4.50;;;17.80;99.90;;;;;;5054022;28;20203;-47
2023/09/16 01:24:23;;;;;;;6.43;4.80;;;17.70;99.90;;;;;;5054521;28;20533;-49
2023/09/16 01:26:49;;;;;;;4.75;4.15;;;17.70;99.90;;;;;;5054752;28;20293;-48
2023/09/16 01:29:19;;;;;;;5.43;4.35;;;17.70;99.90;;;;;;5054769;28;20203;-50
2023/09/16 01:31:46;;;;;;;4.68;4.15;;;17.70;99.90;;;;;;5054567;28;20555;-49
2023/09/16 01:34:25;;;;;;;5.97;4.47;;;17.70;99.90;;;;;;5054579;28;20229;-50
2023/09/16 01:36:54;;;;;;;5.85;4.70;;;17.70;99.90;;;;;;5054408;28;20224;-51
2023/09/16 01:39:23;;;;;;;4.80;4.35;;;17.70;99.90;;;;;;5054422;28;20178;-48
2023/09/16 01:41:54;;;;;;;5.28;4.78;;;17.70;99.90;;;;;;5054277;28;20690;-47
2023/09/16 01:44:20;;;;;;;6.32;4.68;;;17.70;99.90;;;;;;5053185;28;20198;-48
2023/09/16 01:46:45;;;;;;;5.70;4.32;;;17.60;99.90;;;;;;5054359;28;20560;-48
2023/09/16 01:49:11;;;;;;;5.10;4.60;;;17.60;99.90;;;;;;5054205;28;20192;-50
2023/09/16 01:51:36;;;;;;;6.30;4.93;;;17.60;99.90;;;;;;5054110;28;20559;-47
2023/09/16 01:54:02;;;;;;;5.32;4.78;;;17.50;99.90;;;;;;5054297;28;20687;-49
2023/09/16 01:56:28;;;;;;;8.50;5.00;;;17.60;99.90;;;;;;5054284;28;20245;-50
2023/09/16 01:58:53;;;;;;;6.40;5.20;;;17.60;99.90;;;;;;5054124;28;20199;-48
2023/09/16 02:01:19;;;;;;;4.85;4.35;;;17.60;99.90;;;;;;5054004;28;20179;-47
2023/09/16 02:03:45;;;;;;;5.25;4.55;;;17.50;99.90;;;;;;5053729;28;20200;-46
2023/09/16 02:06:10;;;;;;;7.93;5.28;;;17.50;99.90;;;;;;5053817;28;20180;-46
2023/09/16 02:08:36;;;;;;;5.82;5.20;;;17.50;99.90;;;;;;5054005;28;20171;-49
2023/09/16 02:11:02;;;;;;;5.57;4.80;;;17.30;99.90;;;;;;5053908;28;20203;-51
2023/09/16 02:13:28;;;;;;;5.97;5.38;;;17.30;99.90;;;;;;5053766;28;20643;-46
2023/09/16 02:15:53;;;;;;;5.32;4.80;;;17.20;99.90;;;;;;5053709;28;20171;-48
2023/09/16 02:18:20;;;;;;;5.68;5.15;;;17.10;99.90;;;;;;5053609;28;20228;-46
2023/09/16 02:20:45;;;;;;;5.55;4.72;;;17.10;99.90;;;;;;5053759;28;20245;-47
2023/09/16 02:23:12;;;;;;;6.47;5.00;;;17.10;99.90;;;;;;5053465;28;20545;-46
2023/09/16 02:25:38;;;;;;;7.20;5.18;;;17.10;99.90;;;;;;5053606;28;20218;-49
2023/09/16 02:28:04;;;;;;;7.20;5.28;;;16.90;99.90;;;;;;5053672;28;20208;-48
2023/09/16 02:30:29;;;;;;;6.57;5.28;;;17.00;99.90;;;;;;5053519;28;20183;-47
2023/09/16 02:32:55;;;;;;;6.03;5.18;;;17.00;99.90;;;;;;5053409;28;20176;-50
2023/09/16 02:35:20;;;;;;;6.30;5.70;;;16.90;99.90;;;;;;5053361;28;20628;-49
2023/09/16 02:37:46;;;;;;;6.05;5.30;;;16.80;99.90;;;;;;5053545;28;20171;-50
2023/09/16 02:40:12;;;;;;;6.68;5.47;;;16.80;99.90;;;;;;5053538;28;20183;-49
2023/09/16 02:42:37;;;;;;;7.45;5.55;;;16.80;99.90;;;;;;5053292;28;20179;-47
2023/09/16 02:45:03;;;;;;;9.55;5.78;;;16.70;99.90;;;;;;5053261;28;20207;-47
2023/09/16 02:47:29;;;;;;;6.70;6.03;;;16.80;99.90;;;;;;5053222;28;20678;-49
2023/09/16 02:49:55;;;;;;;6.57;5.57;;;16.80;99.90;;;;;;5053163;28;20262;-50
2023/09/16 02:52:20;;;;;;;6.13;5.53;;;16.80;99.90;;;;;;5053395;28;20199;-50
2023/09/16 02:54:46;;;;;;;6.50;5.70;;;16.80;99.90;;;;;;5053338;28;20198;-48
2023/09/16 02:57:12;;;;;;;8.57;6.22;;;16.80;99.90;;;;;;5053254;28;20629;-50
2023/09/16 02:59:38;;;;;;;7.18;6.30;;;16.80;99.90;;;;;;5053059;28;20250;-50
2023/09/16 03:02:04;;;;;;;7.05;5.72;;;16.80;99.90;;;;;;5052957;28;20187;-47
2023/09/16 03:04:29;;;;;;;7.97;5.97;;;16.70;99.90;;;;;;5052881;28;20202;-49
2023/09/16 03:06:55;;;;;;;7.43;6.20;;;16.70;99.90;;;;;;5053133;28;20194;-47
2023/09/16 03:09:20;;;;;;;6.43;5.82;;;16.70;99.90;;;;;;5053022;28;20180;-49
2023/09/16 03:11:47;;;;;;;6.85;5.97;;;16.70;99.90;;;;;;5053098;28;20179;-49
2023/09/16 03:14:12;;;;;;;7.93;5.75;;;16.80;99.90;;;;;;5053073;28;20171;-47
2023/09/16 03:16:38;;;;;;;6.72;6.13;;;16.70;99.90;;;;;;5051679;28;20186;-51
2023/09/16 03:19:03;;;;;;;6.28;5.68;;;16.70;99.90;;;;;;5052595;28;20182;-49
2023/09/16 03:21:29;;;;;;;6.90;6.22;;;16.60;99.90;;;;;;5052954;28;20684;-50
2023/09/16 03:23:55;;;;;;;6.45;5.85;;;16.60;99.90;;;;;;5052946;28;20572;-49
2023/09/16 03:26:21;;;;;;;6.88;6.15;;;16.70;99.90;;;;;;5052849;28;20640;-46
2023/09/16 03:28:47;;;;;;;8.30;6.20;;;16.60;99.90;;;;;;5052898;28;20514;-51
2023/09/16 03:31:14;;;;;;;8.25;5.57;;;16.50;99.90;;;;;;5052813;28;20175;-50
2023/09/16 03:33:40;;;;;;;6.80;6.10;;;16.50;99.90;;;;;;5052656;28;20179;-52
2023/09/16 03:36:06;;;;;;;7.35;6.18;;;16.40;99.90;;;;;;5053013;28;20544;-46
2023/09/16 03:38:33;;;;;;;7.03;5.70;;;16.50;99.90;;;;;;5052933;28;20180;-48
2023/09/16 03:40:59;;;;;;;7.30;6.22;;;16.40;99.90;;;;;;5052884;28;20693;-50
2023/09/16 03:43:25;;;;;;;7.43;6.32;;;16.30;99.90;;;;;;5052663;28;20234;-46
2023/09/16 03:45:51;;;;;;;8.57;7.57;;;16.20;99.90;;;;;;5056007;28;20179;-51
2023/09/16 03:48:17;;;;;;;8.20;7.40;;;16.20;99.90;;;;;;5056488;28;20171;-49
2023/09/16 03:50:42;;;;;;;10.05;7.68;;;16.20;99.90;;;;;;5056634;28;20195;-51
2023/09/16 03:53:09;;;;;;;8.32;7.38;;;16.20;99.90;;;;;;5056392;28;20236;-49
2023/09/16 03:55:35;;;;;;;8.35;7.25;;;16.20;99.90;;;;;;5056427;28;20195;-51
2023/09/16 03:58:01;;;;;;;8.98;7.20;;;16.20;99.90;;;;;;5056377;28;20180;-51
2023/09/16 04:00:27;;;;;;;8.95;8.05;;;16.20;99.90;;;;;;5056354;28;20528;-49
2023/09/16 04:02:52;;;;;;;8.70;7.50;;;16.30;99.90;;;;;;5056113;28;20180;-52
2023/09/16 04:05:18;;;;;;;8.30;7.35;;;16.30;99.90;;;;;;5056114;28;20256;-50
2023/09/16 04:07:44;;;;;;;8.13;7.43;;;16.20;99.90;;;;;;5056305;28;20175;-49
2023/09/16 04:10:10;;;;;;;8.77;7.97;;;16.20;99.90;;;;;;5056250;28;20194;-51
2023/09/16 04:12:36;;;;;;;8.13;7.28;;;16.20;99.90;;;;;;5056163;28;20254;-52
2023/09/16 04:15:02;;;;;;;8.50;7.70;;;16.10;99.90;;;;;;5056015;28;20183;-47
2023/09/16 04:17:28;;;;;;;11.48;7.78;;;16.10;99.90;;;;;;5055939;28;20174;-47
2023/09/16 04:19:54;;;;;;;8.95;7.95;;;16.10;99.90;;;;;;5055868;28;20230;-51
2023/09/16 04:22:20;;;;;;;9.02;8.15;;;16.10;99.90;;;;;;5055898;28;20164;-49
2023/09/16 04:24:46;;;;;;;11.27;8.90;;;16.10;99.90;;;;;;5055795;28;20237;-50
2023/09/16 04:27:12;;;;;;;8.95;8.05;;;16.10;99.90;;;;;;5055852;28;20175;-50
2023/09/16 04:29:37;;;;;;;9.30;8.13;;;16.10;99.90;;;;;;5055717;28;20171;-51
2023/09/16 04:32:03;;;;;;;9.63;8.70;;;16.10;99.90;;;;;;5055663;28;20167;-51
2023/09/16 04:34:29;;;;;;;9.25;8.32;;;16.10;99.90;;;;;;5055585;28;20206;-52
2023/09/16 04:36:55;;;;;;;8.90;7.75;;;16.00;99.90;;;;;;5055759;28;20210;-50
2023/09/16 04:39:24;;;;;;;9.75;8.75;;;16.10;99.90;;;;;;5055733;28;20286;-51
2023/09/16 04:41:53;;;;;;;9.52;8.60;;;16.10;99.90;;;;;;5055612;28;20172;-47
2023/09/16 04:44:22;;;;;;;9.25;8.35;;;16.10;99.90;;;;;;5055468;28;20226;-48
2023/09/16 04:46:53;;;;;;;9.82;8.70;;;16.10;99.90;;;;;;5055353;28;20654;-48
2023/09/16 04:49:21;;;;;;;9.55;8.65;;;16.10;99.90;;;;;;5055569;28;20275;-48
2023/09/16 04:51:48;;;;;;;10.35;9.20;;;16.00;99.90;;;;;;5055500;28;20222;-51
2023/09/16 04:54:14;;;;;;;10.52;9.02;;;15.90;99.90;;;;;;5055312;28;20659;-50
2023/09/16 04:56:39;;;;;;;9.73;8.73;;;15.90;99.90;;;;;;5054065;28;20564;-50
2023/09/16 04:59:05;;;;;;;10.00;9.00;;;15.90;99.90;;;;;;5055234;28;20229;-51
2023/09/16 05:01:31;;;;;;;10.15;9.13;;;16.00;99.90;;;;;;5055162;28;20254;-52
2023/09/16 05:03:57;;;;;;;10.10;9.15;;;16.00;99.90;;;;;;5055184;28;20231;-52
2023/09/16 05:06:23;;;;;;;10.23;9.18;;;16.00;99.90;;;;;;5055011;28;20528;-49
2023/09/16 05:08:49;;;;;;;10.52;9.45;;;15.90;99.90;;;;;;5054882;28;20171;-50
2023/09/16 05:11:15;;;;;;;11.30;10.20;;;15.80;99.90;;;;;;5055057;28;20310;-50
2023/09/16 05:13:41;;;;;;;10.32;9.32;;;15.80;99.90;;;;;;5054918;28;20175;-47
2023/09/16 05:16:10;;;;;;;10.80;9.70;;;15.70;99.90;;;;;;5055042;28;20178;-48
2023/09/16 05:18:35;;;;;;;10.82;9.52;;;15.70;99.90;;;;;;5054845;28;20176;-46
2023/09/16 05:21:01;;;;;;;11.20;9.88;;;15.70;99.90;;;;;;5054904;28;20230;-46
2023/09/16 05:23:27;;;;;;;10.88;9.75;;;15.70;99.90;;;;;;5054572;28;20226;-49
2023/09/16 05:25:52;;;;;;;11.50;10.30;;;15.70;99.90;;;;;;5054525;28;20258;-48
2023/09/16 05:28:18;;;;;;;11.63;10.48;;;15.80;99.90;;;;;;5053674;28;20183;-45
2023/09/16 05:30:44;;;;;;;11.75;10.65;;;15.80;99.90;;;;;;5054022;28;20613;-44
2023/09/16 05:33:13;;;;;;;11.38;10.18;;;15.70;99.90;;;;;;5054559;28;20221;-45
2023/09/16 05:35:40;;;;;;;11.90;10.57;;;15.80;99.90;;;;;;5054669;28;20183;-45
2023/09/16 05:38:06;;;;;;;13.15;10.82;;;15.70;99.90;;;;;;5054491;28;20187;-45
2023/09/16 05:40:33;;;;;;;12.52;10.82;;;15.80;99.90;;;;;;5054509;28;20209;-45
2023/09/16 05:42:58;;;;;;;12.13;10.93;;;15.90;99.90;;;;;;5054260;28;20171;-45
2023/09/16 05:45:24;;;;;;;12.65;10.88;;;15.90;99.90;;;;;;5054412;28;20644;-45
2023/09/16 05:47:51;;;;;;;11.45;10.23;;;15.90;99.90;;;;;;5054458;28;20218;-45
2023/09/16 05:50:17;;;;;;;11.55;10.38;;;15.90;99.90;;;;;;5053501;28;20191;-47
2023/09/16 05:52:43;;;;;;;13.60;10.73;;;16.00;99.90;;;;;;5053598;28;20647;-44
2023/09/16 05:55:09;;;;;;;11.77;10.15;;;16.00;99.90;;;;;;5053637;28;20603;-47
2023/09/16 05:57:35;;;;;;;13.40;10.88;;;16.00;99.90;;;;;;5052458;28;20167;-45
2023/09/16 06:00:01;;;;;;;12.27;10.75;;;16.00;99.90;;;;;;5052342;28;20186;-48
2023/09/16 06:02:27;;;;;;;11.65;10.55;;;16.00;99.90;;;;;;5052351;28;20203;-45
2023/09/16 06:04:53;;;;;;;11.07;9.98;;;16.10;99.90;;;;;;5053426;28;20203;-45
2023/09/16 06:07:19;;;;;;;11.55;10.43;;;16.20;99.90;;;;;;5053335;28;20190;-44
2023/09/16 06:09:45;;;;;;;11.20;10.20;;;16.10;99.90;;;;;;5053938;28;20175;-51
2023/09/16 06:12:10;;;;;;;12.45;11.15;;;16.20;99.90;;;;;;5053764;28;20365;-46
2023/09/16 06:14:39;;;;;;;11.40;10.32;;;16.20;99.90;;;;;;5054011;28;20269;-44
2023/09/16 06:17:05;;;;;;;12.20;10.30;;;16.30;99.90;;;;;;5053890;28;20179;-46
2023/09/16 06:19:32;;;;;;;11.75;10.68;;;16.30;99.90;;;;;;5053725;28;20264;-45
2023/09/16 06:21:57;;;;;;;11.50;10.30;;;16.40;99.90;;;;;;5053666;28;20632;-49
2023/09/16 06:24:24;;;;;;;11.20;10.10;;;16.40;99.90;;;;;;5053567;28;20248;-46
2023/09/16 06:26:50;;;;;;;11.43;10.32;;;16.50;99.90;;;;;;5053523;28;20182;-45
2023/09/16 06:29:16;;;;;;;12.23;10.98;;;16.50;99.90;;;;;;5053501;28;20580;-46
2023/09/16 06:31:41;;;;;;;11.85;10.70;;;16.60;99.90;;;;;;5053989;28;20225;-47
2023/09/16 06:34:07;;;;;;;12.18;10.98;;;16.60;99.90;;;;;;5053485;28;20183;-46
2023/09/16 06:36:33;;;;;;;11.52;10.52;;;16.70;99.90;;;;;;5053079;28;20711;-45
2023/09/16 06:38:59;;;;;;;14.05;11.15;;;16.80;99.90;;;;;;5053308;28;20175;-45
2023/09/16 06:41:25;;;;;;;11.15;9.80;;;16.90;99.90;;;;;;5053263;28;20171;-45
2023/09/16 06:43:51;;;;;;;11.38;10.23;;;16.90;99.90;;;;;;5053462;28;20198;-45
2023/09/16 06:46:17;;;;;;;11.45;10.35;;;17.00;99.90;;;;;;5053522;28;20625;-50
2023/09/16 06:48:45;;;;;;;12.10;10.90;;;17.00;99.90;;;;;;5053198;28;20644;-45
2023/09/16 06:51:11;;;;;;;12.07;10.27;;;17.00;99.90;;;;;;5053263;28;20175;-46
2023/09/16 06:53:36;;;;;;;10.88;9.88;;;17.10;99.90;;;;;;5053310;28;20655;-50
2023/09/16 06:56:02;;;;;;;12.20;10.95;;;17.10;99.90;;;;;;5053097;28;20228;-50
2023/09/16 06:58:28;;;;;;;10.60;9.52;;;17.10;99.90;;;;;;5053216;28;20250;-46
2023/09/16 07:00:54;;;;;;;10.23;9.27;;;17.20;99.90;;;;;;5053241;28;20188;-48
2023/09/16 07:03:21;;;;;;;11.00;9.90;;;17.40;99.90;;;;;;5053218;28;20290;-48
2023/09/16 07:05:47;;;;;;;10.48;9.40;;;17.50;99.90;;;;;;5053239;28;20179;-46
2023/09/16 07:08:18;;;;;;;8.93;8.05;;;17.60;99.90;;;;;;5053101;28;20254;-45
2023/09/16 07:10:43;;;;;;;9.30;8.30;;;17.70;99.90;;;;;;5052955;28;20175;-46
2023/09/16 07:13:09;;;;;;;10.02;8.65;;;17.80;99.90;;;;;;5053247;28;20233;-49
2023/09/16 07:15:35;;;;;;;10.00;9.00;;;17.90;99.90;;;;;;5051882;28;20206;-45
2023/09/16 07:18:01;;;;;;;12.88;9.50;;;18.00;99.90;;;;;;5053052;28;20545;-45
2023/09/16 07:20:27;;;;;;;10.00;9.10;;;18.00;99.90;;;;;;5055959;28;20257;-50
2023/09/16 07:22:55;;;;;;;11.27;9.00;;;18.10;99.90;;;;;;5057125;28;20210;-46
2023/09/16 07:25:21;;;;;;;10.20;8.07;;;18.10;99.90;;;;;;5056849;28;20226;-47
2023/09/16 07:27:47;;;;;;;9.15;7.72;;;18.20;99.90;;;;;;5056920;28;20183;-46
2023/09/16 07:30:14;;;;;;;9.18;7.93;;;18.30;99.90;;;;;;5057447;28;20175;-47
2023/09/16 07:32:41;;;;;;;9.07;8.18;;;18.40;99.90;;;;;;5056933;28;20183;-48
2023/09/16 07:35:07;;;;;;;9.93;8.93;;;18.30;99.90;;;;;;5056894;28;20294;-50
2023/09/16 07:37:33;;;;;;;9.18;8.38;;;18.30;99.90;;;;;;5056683;28;20207;-46
2023/09/16 07:39:58;;;;;;;10.07;9.07;;;18.40;99.90;;;;;;5056570;28;20207;-48
2023/09/16 07:42:24;;;;;;;11.00;9.05;;;18.50;99.90;;;;;;5057091;28;20175;-46
2023/09/16 07:44:50;;;;;;;11.82;8.77;;;18.60;99.90;;;;;;5056776;28;20635;-48
2023/09/16 07:47:15;;;;;;;8.43;7.50;;;18.70;99.90;;;;;;5056650;28;20183;-49
2023/09/16 07:49:41;;;;;;;8.25;7.45;;;18.80;99.90;;;;;;5056677;28;20180;-50
2023/09/16 07:52:07;;;;;;;7.95;7.00;;;18.90;99.90;;;;;;5056440;28;20179;-45
2023/09/16 07:54:32;;;;;;;9.90;7.68;;;19.10;99.90;;;;;;5056549;28;20178;-45
2023/09/16 07:57:02;;;;;;;8.43;7.60;;;19.20;99.90;;;;;;5056591;28;20172;-49
2023/09/16 07:59:28;;;;;;;8.13;7.10;;;19.40;99.90;;;;;;5056315;28;20658;-48
2023/09/16 08:01:53;;;;;;;7.28;6.57;;;19.50;99.90;;;;;;5056429;28;20199;-49
2023/09/16 08:04:19;;;;;;;7.13;6.43;;;19.70;99.90;;;;;;5056365;28;20231;-46
2023/09/16 08:06:46;;;;;;;7.78;6.50;;;19.80;99.90;;;;;;5056467;28;20536;-48
2023/09/16 08:09:12;;;;;;;6.70;6.10;;;19.90;99.90;;;;;;5056151;28;20267;-50
2023/09/16 08:11:38;;;;;;;6.55;5.95;;;19.90;99.90;;;;;;5056301;28;20254;-50
2023/09/16 08:14:04;;;;;;;8.30;6.25;;;20.00;99.90;;;;;;5056044;28;20175;-47
2023/09/16 08:16:29;;;;;;;7.78;6.40;;;20.00;99.90;;;;;;5055975;28;20175;-49
2023/09/16 08:18:55;;;;;;;8.63;6.82;;;20.10;99.90;;;;;;5056320;28;20183;-46
2023/09/16 08:21:20;;;;;;;8.40;7.18;;;19.90;99.90;;;;;;5055849;28;20227;-49
2023/09/16 08:23:46;;;;;;;9.27;6.72;;;19.90;99.90;;;;;;5055832;28;20203;-51
2023/09/16 08:26:12;;;;;;;7.40;6.60;;;20.10;99.90;;;;;;5056070;28;20259;-48
2023/09/16 08:28:37;;;;;;;7.55;6.78;;;20.20;99.90;;;;;;5055861;28;20175;-49
2023/09/16 08:31:03;;;;;;;7.97;5.97;;;20.40;99.90;;;;;;5055688;28;20229;-50
2023/09/16 08:33:29;;;;;;;7.25;6.18;;;20.50;99.90;;;;;;5055693;28;20175;-46
2023/09/16 08:35:55;;;;;;;6.82;6.13;;;20.60;99.90;;;;;;5055748;28;20536;-48
2023/09/16 08:38:22;;;;;;;5.47;4.97;;;20.80;99.90;;;;;;5055574;28;20172;-47
2023/09/16 08:40:59;;;;;;;6.47;5.70;;;20.90;99.90;;;;;;5055776;28;20167;-49
2023/09/16 08:43:27;;;;;;;6.97;5.60;;;20.90;99.90;;;;;;5055991;28;20190;-49
2023/09/16 08:46:00;;;;;;;6.40;5.10;;;20.80;99.90;;;;;;5055875;28;20175;-50
2023/09/16 08:48:28;;;;;;;5.88;4.95;;;20.80;99.90;;;;;;5055446;28;20168;-49
2023/09/16 08:50:55;;;;;;;5.28;4.78;;;21.00;99.90;;;;;;5055331;28;20170;-49
2023/09/16 08:53:25;;;;;;;6.38;4.65;;;21.20;99.90;;;;;;5055372;28;20179;-49
2023/09/16 08:55:52;;;;;;;5.75;5.05;;;21.20;99.90;;;;;;5055036;28;20711;-46
2023/09/16 08:58:19;;;;;;;5.10;4.53;;;21.10;99.90;;;;;;5055282;28;20177;-49
2023/09/16 09:00:45;;;;;;;5.25;4.55;;;21.10;99.90;;;;;;5055273;28;20184;-50
2023/09/16 09:03:11;;;;;;;5.35;4.82;;;21.20;99.90;;;;;;5055225;28;20182;-52
2023/09/16 09:05:38;;;;;;;7.15;4.53;;;21.30;99.90;;;;;;5055095;28;20318;-49
2023/09/16 09:08:08;;;;;;;6.20;4.72;;;21.40;99.90;;;;;;5055264;28;20187;-50
2023/09/16 09:10:40;;;;;;;5.13;4.63;;;21.50;99.90;;;;;;5055166;28;20256;-48
2023/09/16 09:13:15;;;;;;;8.10;3.97;;;21.60;99.90;;;;;;5055060;28;20175;-50
2023/09/16 09:15:42;;;;;;;4.05;3.65;;;21.70;99.90;;;;;;5053940;28;20171;-51
2023/09/16 09:18:09;;;;;;;5.78;4.50;;;21.80;99.90;;;;;;5054843;28;20171;-49
2023/09/16 09:20:35;;;;;;;4.47;4.00;;;21.90;99.90;;;;;;5054606;28;20219;-50
2023/09/16 09:23:02;;;;;;;4.72;4.05;;;22.00;99.90;;;;;;5054857;28;20175;-51
2023/09/16 09:25:31;;;;;;;6.07;4.22;;;22.20;99.90;;;;;;5054808;28;20266;-49
2023/09/16 09:27:57;;;;;;;4.60;4.20;;;22.30;99.90;;;;;;5054661;28;20185;-47
2023/09/16 09:30:27;;;;;;;5.10;3.63;;;22.30;99.90;;;;;;5054596;28;20267;-46
2023/09/16 09:32:56;;;;;;;4.20;3.63;;;22.30;99.90;;;;;;5054777;28;20194;-47
2023/09/16 09:35:30;;;;;;;4.35;3.95;;;22.40;99.90;;;;;;5054665;28;20186;-49
2023/09/16 09:37:57;;;;;;;7.07;4.18;;;22.50;99.90;;;;;;5054638;28;20262;-49
2023/09/16 09:40:23;;;;;;;5.50;4.22;;;22.40;99.90;;;;;;5054416;28;20179;-47
2023/09/16 09:42:51;;;;;;;5.68;4.10;;;22.40;99.90;;;;;;5053828;28;20589;-49
2023/09/16 09:45:21;;;;;;;4.40;4.05;;;22.50;99.90;;;;;;5054078;28;20225;-49
2023/09/16 09:47:50;;;;;;;5.47;4.13;;;22.60;99.90;;;;;;5054495;28;20190;-48
2023/09/16 09:50:18;;;;;;;4.53;4.10;;;22.60;99.90;;;;;;5054326;28;20174;-48
2023/09/16 09:52:48;;;;;;;4.60;4.03;;;22.50;99.90;;;;;;5054185;28;20171;-52
2023/09/16 09:55:21;;;;;;;5.10;3.72;;;22.60;99.90;;;;;;5054282;28;20190;-48
2023/09/16 09:57:50;;;;;;;6.40;4.30;;;22.90;99.90;;;;;;5054137;28;20663;-51
2023/09/16 10:00:20;;;;;;;4.47;3.67;;;22.90;99.90;;;;;;5054246;28;20175;-49
2023/09/16 10:02:47;;;;;;;4.40;4.00;;;23.10;99.90;;;;;;5054243;28;20559;-50
2023/09/16 10:05:21;;;;;;;5.50;3.55;;;23.10;99.90;;;;;;5053914;28;20225;-51
2023/09/16 10:07:47;;;;;;;9.90;3.53;;;23.30;99.90;;;;;;5053848;28;20179;-49
2023/09/16 10:10:20;;;;;;;4.05;3.65;;;23.30;99.90;;;;;;5054098;28;20628;-47
2023/09/16 10:12:47;;;;;;;4.90;3.35;;;23.40;99.90;;;;;;5052838;28;20202;-50
2023/09/16 10:15:13;;;;;;;3.63;2.95;;;23.40;99.90;;;;;;5054026;28;20174;-50
2023/09/16 10:17:45;;;;;;;3.92;3.40;;;23.50;99.90;;;;;;5053894;28;20255;-50
2023/09/16 10:20:11;;;;;;;4.00;3.10;;;23.60;99.90;;;;;;5053705;28;20273;-49
2023/09/16 10:22:40;;;;;;;4.10;3.15;;;23.70;99.90;;;;;;5053561;28;20191;-50
2023/09/16 10:25:07;;;;;;;4.03;3.22;;;23.90;99.90;;;;;;5053726;28;20219;-49
2023/09/16 10:27:51;;;;;;;4.18;3.30;;;23.90;99.90;;;;;;5053749;28;20694;-50
2023/09/16 10:30:17;;;;;;;4.22;3.22;;;23.90;99.90;;;;;;5052468;28;20285;-51
2023/09/16 10:32:43;;;;;;;5.25;3.40;;;24.00;99.90;;;;;;5053772;28;20163;-51
2023/09/16 10:35:10;;;;;;;5.50;2.70;;;24.00;99.90;;;;;;5053345;28;20556;-51
2023/09/16 10:37:36;;;;;;;3.78;2.97;;;23.90;99.90;;;;;;5053628;28;20179;-48
2023/09/16 10:40:04;;;;;;;3.13;2.55;;;24.10;99.90;;;;;;5053532;28;20171;-50
2023/09/16 10:42:33;;;;;;;3.50;3.15;;;24.20;99.90;;;;;;5053445;28;20202;-50
2023/09/16 10:45:03;;;;;;;4.30;3.20;;;24.20;99.90;;;;;;5053270;28;20206;-47
2023/09/16 10:47:30;;;;;;;3.35;2.80;;;24.30;99.90;;;;;;5053640;28;20197;-50
2023/09/16 10:49:56;;;;;;;4.45;3.53;;;24.50;99.90;;;;;;5052005;28;20630;-48
2023/09/16 10:52:54;;;;;;;3.70;3.40;;;24.50;99.90;;;;;;5053156;28;20175;-49
2023/09/16 10:55:44;;;;;;;3.97;3.47;;;24.40;99.90;;;;;;5051369;28;20194;-46
2023/09/16 10:58:19;;;;;;;4.10;3.28;;;24.50;99.90;;;;;;5053165;28;20246;-49
2023/09/16 11:00:50;;;;;;;4.22;3.63;;;24.60;99.90;;;;;;5053315;28;20640;-51
2023/09/16 11:03:17;;;;;;;5.57;3.88;;;24.50;99.90;;;;;;5053167;28;20167;-48
2023/09/16 11:05:43;;;;;;;5.50;3.67;;;24.20;99.90;;;;;;5053153;28;20186;-47
2023/09/16 11:08:09;;;;;;;4.35;3.65;;;24.10;99.90;;;;;;5053059;28;20163;-49
2023/09/16 11:10:35;;;;;;;4.55;3.75;;;24.00;99.90;;;;;;5052913;28;20629;-47
2023/09/16 11:13:02;;;;;;;3.28;3.00;;;24.00;99.90;;;;;;5052986;28;20750;-47
2023/09/16 11:15:34;;;;;;;4.80;3.63;;;24.20;99.90;;;;;;5053152;28;20586;-49
2023/09/16 11:18:04;;;;;;;5.13;3.30;;;24.40;99.90;;;;;;5052997;28;20179;-46
2023/09/16 11:20:33;;;;;;;4.70;3.67;;;24.50;99.90;;;;;;5052685;28;20234;-49
2023/09/16 11:23:05;;;;;;;3.95;3.20;;;24.60;99.90;;;;;;5052841;28;20178;-47
2023/09/16 11:25:36;;;;;;;6.05;3.60;;;24.50;99.90;;;;;;5052835;28;20540;-46
2023/09/16 11:28:03;;;;;;;4.68;3.20;;;24.50;99.90;;;;;;5053113;28;20163;-51
2023/09/16 11:30:32;;;;;;;4.78;3.15;;;24.70;99.90;;;;;;5052885;28;20184;-46
2023/09/16 11:32:57;;;;;;;4.53;3.35;;;24.80;99.90;;;;;;5052753;28;20683;-50
2023/09/16 11:35:26;;;;;;;5.60;3.40;;;24.90;99.90;;;;;;5052755;28;20175;-49
2023/09/16 11:37:53;;;;;;;3.60;3.30;;;25.00;99.90;;;;;;5052677;28;20172;-47
2023/09/16 11:40:24;;;;;;;3.67;3.10;;;25.00;99.90;;;;;;5052950;28;20183;-49
2023/09/16 11:42:50;;;;;;;4.88;3.60;;;25.10;99.90;;;;;;5052750;28;20179;-46
2023/09/16 11:45:17;;;;;;;4.20;3.35;;;25.10;99.90;;;;;;5052751;28;20641;-50
2023/09/16 11:47:43;;;;;;;4.47;3.53;;;25.10;99.90;;;;;;5052800;28;20250;-48
2023/09/16 11:50:23;;;;;;;5.43;3.10;;;25.10;99.90;;;;;;5052668;28;20184;-46
2023/09/16 11:52:49;;;;;;;4.72;4.10;;;25.10;99.90;;;;;;5052572;28;20635;-47
2023/09/16 11:55:16;;;;;;;5.40;3.90;;;24.90;99.90;;;;;;5052551;28;20191;-46
2023/09/16 11:57:42;;;;;;;5.18;3.70;;;25.10;99.90;;;;;;5052665;28;20175;-50
2023/09/16 12:00:09;;;;;;;6.13;3.85;;;25.00;99.90;;;;;;5052615;28;20221;-50
2023/09/16 12:02:35;;;;;;;5.20;3.80;;;25.00;99.90;;;;;;5052466;28;20182;-51
2023/09/16 12:05:03;;;;;;;4.95;3.80;;;25.00;99.90;;;;;;5052653;28;20207;-47
2023/09/16 12:07:35;;;;;;;4.70;3.25;;;25.10;99.90;;;;;;5056268;28;20179;-48
2023/09/16 12:10:02;;;;;;;4.50;3.47;;;25.20;99.90;;;;;;5056113;28;20168;-46
2023/09/16 12:12:28;;;;;;;4.20;3.70;;;25.10;99.90;;;;;;5056016;28;20750;-51
2023/09/16 12:14:55;;;;;;;4.53;3.22;;;25.30;99.90;;;;;;5056114;28;20176;-48
2023/09/16 12:17:23;;;;;;;5.10;3.47;;;25.30;99.90;;;;;;5055945;28;20176;-47
2023/09/16 12:19:53;;;;;;;4.63;3.50;;;25.30;99.90;;;;;;5055750;28;20219;-48
2023/09/16 12:22:19;;;;;;;3.88;2.80;;;25.20;99.90;;;;;;5056082;28;20302;-46
2023/09/16 12:24:46;;;;;;;4.80;3.30;;;25.40;99.90;;;;;;5055927;28;20668;-49
2023/09/16 12:27:12;;;;;;;4.45;3.70;;;25.40;99.90;;;;;;5055902;28;20258;-46
2023/09/16 12:29:38;;;;;;;6.65;4.00;;;25.30;99.90;;;;;;5055773;28;20198;-46
2023/09/16 12:32:21;;;;;;;5.05;3.60;;;25.30;99.90;;;;;;5055719;28;20248;-49
2023/09/16 12:35:03;;;;;;;4.57;3.70;;;25.30;99.90;;;;;;5055913;28;20175;-51
2023/09/16 12:37:29;;;;;;;6.97;3.80;;;25.30;99.90;;;;;;5055688;28;20179;-48
2023/09/16 12:39:55;;;;;;;3.80;3.50;;;25.10;99.90;;;;;;5055511;28;20551;-47
2023/09/16 12:42:21;;;;;;;4.45;3.47;;;25.10;99.90;;;;;;5055473;28;20163;-50